Huvudsida
METAR-TAF:

METAR-TAF

Flygplatser :

Amata Kabua International Airport

Majuro, Marshallöarna

latitud: 07-04N, longitud: 171-17E, höjd: 2 m

Aktuellt väderrapport

Denna rapport gjordes för 52 minuter sedan, klockan 19:52 UTC
Vind 9 kt från ost/nordost
Temperatur 30°C
Fuktighet 75%
Tryck 1007 hPa
Sikt: 24.1 km
Få moln på en höjd av 1500 ft
Spridda moln på en höjd av 5000 ft
Mulet på en höjd av 30000 ft

METAR: PKMJ 121952Z 07009KT 15SM FEW015 SCT050 OVC300 30/25 A2975

Tid: 08:44 (20:44 UTC)

Väderprognos

Denna rapport gjordes för 3 timmar och 18 minuter sedan, klockan 17:26 UTC
Prognos gäller från 12 kl. 18 UTC till 13 kl. 18 UTC
Vind 7 kt från ost
Sikt: 10 km
Spridda moln på en höjd av 1500 ft
Spridda moln på en höjd av 5000 ft
Brutna moln på en höjd av 12000 ft
skurar i närheten

TAF: PKMJ 121726Z 1218/1318 08007KT P6SM VCSH SCT015 SCT050 BKN120

Aktuella väderrapporter och prognoser från 4000 flygplatser (METAR- och TAF-rapporter).

De tillgängliga stationerna syns som gula och röda prickar på kartan.

För musen över prickarna för att se namnen på stationerna.

Klicka sedan för att få väderrapporter och prognoser.

För att ändra kartan: Klicka på de gröna knapparna med ett svart kors på för att zooma in; den gröna knappen med ett streck på för att zooma ut; eller på de gröna pilarna för angränsande kartor.


METAR-TAF: